Time;durP1;ratioP1;P1;durP2;ratioP2;P2;SDS_P1;SDS_P2;PMS_P1;PMS_P2;Temp;Humidity;BMP_temperature;BMP_pressure;BME280_temperature;BME280_humidity;BME280_pressure;Samples;Min_cycle;Max_cycle;Signal;HPM_P1;HPM_P2
2023/12/12 00:00:08;;;;;;;105.95;61.83;;;16.80;74.00;;;;;;5028180;28;20059;-82
2023/12/12 00:02:33;;;;;;;109.32;61.75;;;16.80;74.10;;;;;;5030915;28;20089;-83
2023/12/12 00:04:59;;;;;;;109.32;62.65;;;16.80;74.10;;;;;;5007267;28;20163;-83
2023/12/12 00:07:24;;;;;;;102.13;58.58;;;16.70;74.00;;;;;;5011010;28;20034;-83
2023/12/12 00:09:50;;;;;;;102.88;57.70;;;16.80;74.10;;;;;;5011932;28;20506;-83
2023/12/12 00:12:15;;;;;;;101.43;59.67;;;16.70;74.80;;;;;;5028816;28;20037;-83
2023/12/12 00:14:41;;;;;;;98.40;57.15;;;16.80;74.00;;;;;;5038589;28;20036;-83
2023/12/12 00:17:07;;;;;;;103.53;57.85;;;16.70;74.00;;;;;;5008050;28;20519;-83
2023/12/12 00:19:32;;;;;;;97.10;56.65;;;16.70;74.10;;;;;;5010821;28;20021;-94
2023/12/12 00:21:58;;;;;;;94.82;55.42;;;16.70;74.10;;;;;;5047199;28;20040;-94
2023/12/12 00:24:23;;;;;;;96.68;54.72;;;16.70;74.00;;;;;;5008926;28;20486;-93
2023/12/12 00:26:49;;;;;;;96.75;54.75;;;16.70;74.00;;;;;;5047578;28;20348;-94
2023/12/12 00:29:15;;;;;;;92.63;53.55;;;16.70;74.10;;;;;;5046220;28;20029;-93
2023/12/12 00:31:40;;;;;;;95.75;53.85;;;16.70;74.10;;;;;;5044776;28;20494;-93
2023/12/12 00:34:06;;;;;;;94.20;53.38;;;16.70;74.10;;;;;;5043028;28;20018;-93
2023/12/12 00:36:31;;;;;;;88.47;52.20;;;16.70;74.10;;;;;;5029540;28;20161;-93
2023/12/12 00:38:57;;;;;;;81.38;47.92;;;16.70;74.20;;;;;;5027394;28;20194;-93
2023/12/12 00:41:33;;;;;;;92.55;52.10;;;16.70;74.30;;;;;;5047113;28;20017;-92
2023/12/12 00:43:58;;;;;;;84.68;49.92;;;16.70;74.10;;;;;;5055291;28;20021;-94
2023/12/12 00:46:24;;;;;;;79.93;47.88;;;16.60;74.20;;;;;;5046066;28;20031;-90
2023/12/12 00:48:49;;;;;;;82.65;49.10;;;16.60;74.20;;;;;;5040787;28;20025;-90
2023/12/12 00:51:15;;;;;;;81.88;48.67;;;16.60;74.10;;;;;;5031115;28;21677;-91
2023/12/12 00:53:40;;;;;;;79.03;46.38;;;16.60;74.20;;;;;;5011642;28;20479;-91
2023/12/12 00:56:06;;;;;;;77.18;45.85;;;16.60;74.20;;;;;;5041854;28;20033;-90
2023/12/12 00:58:32;;;;;;;76.00;44.17;;;16.60;74.20;;;;;;5044748;28;20021;-91
2023/12/12 01:00:57;;;;;;;77.25;45.17;;;16.60;74.40;;;;;;5013799;28;20572;-90
2023/12/12 01:03:23;;;;;;;74.72;44.00;;;16.60;74.30;;;;;;5031013;28;20045;-90
2023/12/12 01:05:48;;;;;;;75.80;45.45;;;16.60;74.20;;;;;;5048396;28;20041;-90
2023/12/12 01:08:14;;;;;;;78.22;43.63;;;16.60;74.20;;;;;;5044393;28;20032;-90
2023/12/12 01:10:39;;;;;;;76.22;45.90;;;16.60;74.20;;;;;;5023394;28;21370;-88
2023/12/12 01:13:05;;;;;;;71.35;43.08;;;16.60;74.20;;;;;;5040629;28;20422;-88
2023/12/12 01:15:30;;;;;;;72.47;43.05;;;16.60;74.10;;;;;;5048396;28;20020;-89
2023/12/12 01:17:56;;;;;;;72.20;42.63;;;16.60;74.20;;;;;;5030061;28;20014;-88
2023/12/12 01:20:22;;;;;;;67.35;39.80;;;16.60;74.40;;;;;;5032289;28;20546;-88
2023/12/12 01:22:47;;;;;;;69.38;41.15;;;16.60;74.30;;;;;;5046633;28;20047;-89
2023/12/12 01:25:13;;;;;;;67.40;39.95;;;16.60;75.30;;;;;;5014316;28;20033;-88
2023/12/12 01:27:38;;;;;;;65.63;39.53;;;16.60;74.70;;;;;;5048510;28;20021;-88
2023/12/12 01:30:05;;;;;;;69.53;41.05;;;16.60;74.40;;;;;;5027550;28;20172;-88
2023/12/12 01:32:30;;;;;;;62.75;38.70;;;16.60;74.50;;;;;;5046571;28;20100;-88
2023/12/12 01:34:56;;;;;;;63.17;38.72;;;16.60;74.30;;;;;;5012349;28;20141;-88
2023/12/12 01:37:21;;;;;;;64.15;37.88;;;16.50;74.40;;;;;;5027133;28;20048;-88
2023/12/12 01:39:47;;;;;;;59.83;36.85;;;16.60;74.50;;;;;;5048104;28;20036;-90
2023/12/12 01:42:12;;;;;;;60.05;36.08;;;16.50;74.70;;;;;;5031323;28;20575;-88
2023/12/12 01:44:38;;;;;;;58.45;36.30;;;16.60;74.80;;;;;;5032225;28;20037;-88
2023/12/12 01:47:04;;;;;;;57.35;34.13;;;16.60;74.60;;;;;;5030771;28;20025;-92
2023/12/12 01:49:29;;;;;;;58.13;35.53;;;16.50;74.50;;;;;;5047194;28;20033;-91
2023/12/12 01:51:55;;;;;;;55.15;34.30;;;16.50;74.40;;;;;;4996700;28;20491;-92
2023/12/12 01:54:20;;;;;;;56.38;33.28;;;16.50;74.70;;;;;;5054530;28;20052;-91
2023/12/12 01:56:47;;;;;;;52.85;32.60;;;16.50;74.80;;;;;;5033172;28;20028;-90
2023/12/12 01:59:12;;;;;;;57.25;34.10;;;16.50;74.70;;;;;;5033252;28;20045;-91
2023/12/12 02:01:38;;;;;;;52.97;31.52;;;16.50;75.40;;;;;;5012618;28;20038;-90
2023/12/12 02:04:04;;;;;;;49.50;31.05;;;16.60;74.70;;;;;;5043073;28;20039;-91
2023/12/12 02:06:29;;;;;;;50.42;31.08;;;16.50;74.90;;;;;;5045372;28;20063;-91
2023/12/12 02:08:55;;;;;;;53.90;32.47;;;16.50;74.90;;;;;;5027322;28;20040;-91
2023/12/12 02:11:21;;;;;;;50.45;31.88;;;16.50;74.90;;;;;;5038713;28;20040;-90
2023/12/12 02:13:47;;;;;;;52.10;31.02;;;16.50;74.90;;;;;;5035279;28;20076;-90
2023/12/12 02:16:13;;;;;;;49.22;31.13;;;16.50;74.90;;;;;;5034273;28;20459;-92
2023/12/12 02:18:39;;;;;;;48.78;30.55;;;16.50;74.90;;;;;;5033328;28;20032;-91
2023/12/12 02:21:05;;;;;;;45.67;29.25;;;16.50;74.90;;;;;;5033190;28;20127;-94
2023/12/12 02:23:30;;;;;;;49.50;29.85;;;16.50;74.90;;;;;;5031161;28;20090;-93
2023/12/12 02:25:56;;;;;;;48.45;30.08;;;16.50;75.00;;;;;;5050315;28;20039;-92
2023/12/12 02:28:22;;;;;;;49.70;30.20;;;16.50;75.00;;;;;;5049962;28;20073;-88
2023/12/12 02:30:48;;;;;;;46.85;28.92;;;16.50;75.00;;;;;;5042102;28;20022;-87
2023/12/12 02:33:13;;;;;;;44.72;27.52;;;16.50;75.00;;;;;;5047868;28;20025;-86
2023/12/12 02:35:39;;;;;;;44.80;27.88;;;16.50;75.20;;;;;;5045034;28;20038;-86
2023/12/12 02:38:05;;;;;;;43.33;26.90;;;16.50;75.20;;;;;;5039287;28;20080;-85
2023/12/12 02:40:30;;;;;;;43.10;27.05;;;16.50;75.20;;;;;;5041967;28;20040;-85
2023/12/12 02:42:56;;;;;;;40.45;26.33;;;16.50;75.10;;;;;;5042927;28;20044;-85
2023/12/12 02:45:21;;;;;;;42.85;26.52;;;16.50;75.10;;;;;;5027119;28;20021;-86
2023/12/12 02:47:47;;;;;;;40.95;24.88;;;16.50;75.10;;;;;;5047245;28;20017;-86
2023/12/12 02:50:12;;;;;;;39.67;24.67;;;16.50;75.20;;;;;;5027119;28;20107;-86
2023/12/12 02:52:38;;;;;;;38.92;24.15;;;16.50;75.30;;;;;;5026486;28;20066;-87
2023/12/12 02:55:04;;;;;;;37.90;23.35;;;16.50;75.30;;;;;;5022741;28;20513;-87
2023/12/12 02:57:29;;;;;;;40.33;24.08;;;16.50;75.40;;;;;;5042101;28;20033;-88
2023/12/12 02:59:55;;;;;;;38.40;23.88;;;16.50;75.40;;;;;;5025005;28;20492;-88
2023/12/12 03:02:20;;;;;;;37.75;23.38;;;16.40;75.30;;;;;;5028215;28;20021;-86
2023/12/12 03:04:46;;;;;;;34.55;22.65;;;16.50;75.30;;;;;;5021760;28;20021;-86
2023/12/12 03:07:11;;;;;;;36.63;23.25;;;16.50;75.30;;;;;;5042004;28;20029;-86
2023/12/12 03:09:37;;;;;;;34.42;22.10;;;16.50;75.40;;;;;;5044858;28;20025;-87
2023/12/12 03:12:03;;;;;;;34.83;22.48;;;16.40;75.40;;;;;;5043526;28;20560;-87
2023/12/12 03:14:29;;;;;;;36.35;23.70;;;16.50;75.40;;;;;;5025186;28;20120;-87
2023/12/12 03:16:55;;;;;;;37.30;23.20;;;16.40;75.30;;;;;;5024174;28;20031;-86
2023/12/12 03:19:22;;;;;;;37.15;23.58;;;16.40;75.30;;;;;;5023689;28;20051;-87
2023/12/12 03:21:48;;;;;;;36.17;22.63;;;16.40;75.30;;;;;;5028138;28;20025;-87
2023/12/12 03:24:13;;;;;;;34.30;21.35;;;16.40;75.20;;;;;;5024820;28;20024;-87
2023/12/12 03:26:39;;;;;;;32.67;21.65;;;16.40;75.30;;;;;;5043174;28;20025;-87
2023/12/12 03:29:04;;;;;;;32.38;21.20;;;16.40;75.30;;;;;;5042034;28;20032;-86
2023/12/12 03:31:30;;;;;;;32.33;20.98;;;16.40;75.30;;;;;;5044849;28;20112;-86
2023/12/12 03:33:55;;;;;;;32.63;19.83;;;16.40;75.30;;;;;;5050471;28;20108;-88
2023/12/12 03:36:21;;;;;;;29.90;18.80;;;16.40;75.30;;;;;;5007872;28;20013;-87
2023/12/12 03:38:47;;;;;;;29.95;19.10;;;16.40;75.30;;;;;;5026619;28;20033;-87
2023/12/12 03:41:12;;;;;;;29.45;19.45;;;16.40;75.40;;;;;;5039201;28;20714;-86
2023/12/12 03:43:38;;;;;;;25.00;17.52;;;16.40;75.30;;;;;;5025757;28;20537;-87
2023/12/12 03:46:03;;;;;;;27.55;17.65;;;16.40;75.40;;;;;;5043243;28;20094;-87
2023/12/12 03:48:30;;;;;;;29.30;18.88;;;16.40;75.30;;;;;;5023475;28;20104;-87
2023/12/12 03:50:55;;;;;;;28.10;18.13;;;16.40;75.30;;;;;;5009394;28;20159;-87
2023/12/12 03:53:22;;;;;;;27.88;17.45;;;16.40;75.40;;;;;;5042700;28;20043;-87
2023/12/12 03:55:48;;;;;;;26.13;17.13;;;16.40;75.40;;;;;;5041726;28;20025;-87
2023/12/12 03:58:14;;;;;;;26.95;17.67;;;16.40;75.50;;;;;;5008736;28;20040;-87
2023/12/12 04:00:40;;;;;;;25.90;16.90;;;16.40;75.40;;;;;;5024502;28;20056;-87
2023/12/12 04:03:05;;;;;;;27.15;17.88;;;16.40;75.40;;;;;;5029586;28;20048;-89
2023/12/12 04:05:31;;;;;;;28.63;18.38;;;16.40;75.40;;;;;;5037259;28;20029;-90
2023/12/12 04:07:56;;;;;;;24.35;15.95;;;16.40;75.40;;;;;;5042239;28;20036;-89
2023/12/12 04:10:22;;;;;;;23.88;16.17;;;16.40;75.40;;;;;;5044610;28;20033;-89
2023/12/12 04:12:48;;;;;;;26.17;17.10;;;16.40;75.30;;;;;;5054843;28;20754;-89
2023/12/12 04:15:13;;;;;;;23.67;15.93;;;16.40;76.10;;;;;;5025230;28;20522;-88
2023/12/12 04:17:39;;;;;;;23.85;15.55;;;16.40;75.30;;;;;;5029435;28;20025;-88
2023/12/12 04:20:06;;;;;;;23.02;15.52;;;16.40;75.40;;;;;;5029878;28;20033;-89
2023/12/12 04:22:31;;;;;;;22.77;15.52;;;16.40;75.40;;;;;;5042512;28;20044;-89
2023/12/12 04:24:57;;;;;;;22.98;15.13;;;16.40;75.50;;;;;;5042807;28;20186;-88
2023/12/12 04:27:23;;;;;;;23.40;15.80;;;16.40;75.50;;;;;;5045966;28;20017;-89
2023/12/12 04:29:48;;;;;;;23.20;15.48;;;16.40;75.40;;;;;;5047591;28;20021;-94
2023/12/12 04:32:15;;;;;;;21.52;14.50;;;16.40;75.40;;;;;;5034189;28;20032;-90
2023/12/12 04:34:40;;;;;;;24.38;15.75;;;16.40;75.40;;;;;;5016594;28;20029;-91
2023/12/12 04:37:06;;;;;;;21.33;14.65;;;16.40;75.30;;;;;;5043074;28;20048;-91
2023/12/12 04:39:31;;;;;;;20.30;14.38;;;16.40;75.30;;;;;;5031209;28;20030;-93
2023/12/12 04:41:57;;;;;;;21.77;14.60;;;16.40;75.30;;;;;;5030286;28;20021;-91
2023/12/12 04:44:23;;;;;;;19.95;13.68;;;16.40;75.40;;;;;;5013930;28;20025;-87
2023/12/12 04:46:48;;;;;;;19.02;13.43;;;16.40;75.50;;;;;;5028875;28;20030;-91
2023/12/12 04:49:14;;;;;;;18.42;13.68;;;16.40;75.40;;;;;;5046826;28;20072;-92
2023/12/12 04:51:40;;;;;;;21.58;14.40;;;16.40;75.50;;;;;;5029260;28;20033;-90
2023/12/12 04:54:05;;;;;;;20.13;14.50;;;16.40;75.40;;;;;;5030438;28;20507;-90
2023/12/12 04:56:31;;;;;;;23.83;13.48;;;16.40;75.50;;;;;;5024739;28;20112;-92
2023/12/12 04:58:56;;;;;;;19.77;13.15;;;16.30;75.50;;;;;;4998184;28;20021;-91
2023/12/12 05:01:22;;;;;;;17.05;12.88;;;16.30;75.40;;;;;;5021138;28;20026;-91
2023/12/12 05:03:48;;;;;;;18.00;13.15;;;16.40;75.50;;;;;;5045168;28;20025;-92
2023/12/12 05:06:14;;;;;;;18.15;13.23;;;16.30;75.40;;;;;;5026986;28;20381;-88
2023/12/12 05:08:41;;;;;;;17.67;12.80;;;16.30;75.40;;;;;;5030000;28;20040;-88
2023/12/12 05:11:07;;;;;;;17.38;12.88;;;16.40;75.50;;;;;;5028853;28;20026;-88
2023/12/12 05:13:32;;;;;;;15.57;11.57;;;16.30;75.40;;;;;;5043023;28;20036;-88
2023/12/12 05:15:58;;;;;;;14.63;11.40;;;16.30;75.30;;;;;;5024960;28;20428;-88
2023/12/12 05:18:23;;;;;;;17.40;12.88;;;16.30;75.30;;;;;;5026681;28;20022;-89
2023/12/12 05:20:49;;;;;;;16.58;11.95;;;16.30;75.40;;;;;;5029735;28;20033;-89
2023/12/12 05:23:15;;;;;;;14.93;11.40;;;16.40;75.40;;;;;;5022091;28;20099;-90
2023/12/12 05:25:41;;;;;;;16.00;11.52;;;16.30;75.30;;;;;;5041644;28;20406;-89
2023/12/12 05:28:07;;;;;;;15.98;11.65;;;16.30;75.40;;;;;;5012477;28;20120;-88
2023/12/12 05:30:32;;;;;;;14.95;11.15;;;16.30;75.40;;;;;;5028454;28;20113;-88
2023/12/12 05:32:58;;;;;;;16.10;11.30;;;16.30;75.40;;;;;;5026339;28;20517;-90
2023/12/12 05:35:24;;;;;;;13.75;10.88;;;16.30;76.20;;;;;;5030486;28;20021;-90
2023/12/12 05:37:49;;;;;;;16.17;11.90;;;16.30;75.40;;;;;;5044984;28;20050;-92
2023/12/12 05:40:15;;;;;;;14.27;11.18;;;16.30;75.40;;;;;;5028665;28;20108;-89
2023/12/12 05:42:41;;;;;;;16.17;11.48;;;16.30;75.40;;;;;;5042128;28;20021;-90
2023/12/12 05:45:07;;;;;;;15.27;10.82;;;16.30;75.40;;;;;;5025916;28;20056;-85
2023/12/12 05:47:33;;;;;;;15.23;11.27;;;16.30;75.40;;;;;;5025643;28;20106;-85
2023/12/12 05:49:58;;;;;;;14.50;10.98;;;16.30;75.40;;;;;;5021235;28;20155;-85
2023/12/12 05:52:25;;;;;;;14.93;11.43;;;16.30;75.40;;;;;;5019955;28;20057;-89
2023/12/12 05:54:51;;;;;;;14.52;11.25;;;16.30;75.40;;;;;;5049683;28;20026;-90
2023/12/12 05:57:17;;;;;;;12.70;10.00;;;16.30;75.30;;;;;;5043300;28;20040;-89
2023/12/12 05:59:42;;;;;;;13.20;10.65;;;16.30;75.30;;;;;;5027021;28;21031;-91
2023/12/12 06:02:08;;;;;;;14.63;10.80;;;16.30;75.40;;;;;;5046254;28;20061;-89
2023/12/12 06:04:35;;;;;;;14.27;10.25;;;16.30;75.40;;;;;;5026458;28;20025;-89
2023/12/12 06:07:01;;;;;;;13.90;10.45;;;16.30;75.30;;;;;;5016317;28;20053;-91
2023/12/12 06:09:27;;;;;;;14.05;10.25;;;16.30;75.30;;;;;;4995953;28;20125;-92
2023/12/12 06:11:53;;;;;;;14.88;9.95;;;16.30;75.10;;;;;;5025717;28;20112;-84
2023/12/12 06:14:19;;;;;;;13.05;9.20;;;16.40;75.30;;;;;;5011573;28;20033;-89
2023/12/12 06:16:44;;;;;;;11.98;9.13;;;16.50;75.10;;;;;;5028534;28;20029;-90
2023/12/12 06:19:10;;;;;;;12.73;9.90;;;16.50;75.20;;;;;;5029019;28;20442;-95
2023/12/12 06:21:35;;;;;;;13.43;9.98;;;16.50;75.20;;;;;;5037557;28;20030;-94
2023/12/12 06:24:01;;;;;;;12.85;9.45;;;16.40;75.50;;;;;;5017309;28;20032;-92
2023/12/12 06:26:28;;;;;;;11.93;8.90;;;16.40;75.70;;;;;;5019509;28;20022;-90
2023/12/12 06:28:53;;;;;;;11.77;8.43;;;16.40;75.50;;;;;;5033854;28;20075;-95
2023/12/12 06:31:19;;;;;;;14.60;10.02;;;16.40;75.70;;;;;;5011344;28;20112;-93
2023/12/12 06:33:45;;;;;;;16.10;10.55;;;16.50;75.80;;;;;;5034192;28;20026;-89
2023/12/12 06:36:10;;;;;;;14.32;10.50;;;16.50;75.80;;;;;;5012362;28;20035;-94
2023/12/12 06:38:36;;;;;;;14.93;10.70;;;16.50;75.90;;;;;;5030472;28;20155;-90
2023/12/12 06:41:03;;;;;;;13.45;10.30;;;16.40;76.00;;;;;;5046062;28;20546;-92
2023/12/12 06:43:28;;;;;;;14.63;10.38;;;16.50;76.30;;;;;;5050401;28;20017;-95
2023/12/12 06:45:54;;;;;;;13.45;9.35;;;16.50;76.40;;;;;;5040998;28;20037;-95
2023/12/12 06:48:19;;;;;;;11.98;9.60;;;16.50;76.40;;;;;;5013678;28;20037;-88
2023/12/12 06:50:45;;;;;;;13.93;9.27;;;16.40;76.40;;;;;;5044875;28;20023;-95
2023/12/12 06:53:11;;;;;;;14.68;9.20;;;16.40;76.40;;;;;;5027394;28;20441;-87
2023/12/12 06:55:37;;;;;;;11.97;9.30;;;16.40;77.30;;;;;;4703527;28;10000608;-92
2023/12/12 06:58:04;;;;;;;12.75;9.55;;;16.40;77.40;;;;;;4701402;28;10000392;-93
2023/12/12 07:00:30;;;;;;;13.85;8.95;;;16.40;77.50;;;;;;5041035;28;20249;-93
2023/12/12 07:02:55;;;;;;;9.77;8.20;;;16.40;77.70;;;;;;5048822;28;20029;-94
2023/12/12 07:05:21;;;;;;;9.32;8.30;;;16.40;77.30;;;;;;5039091;28;20128;-96
2023/12/12 07:07:47;;;;;;;11.77;7.95;;;16.40;77.70;;;;;;5022128;28;20028;-95
2023/12/12 07:10:13;;;;;;;12.93;8.48;;;16.40;77.90;;;;;;5016841;28;20326;-93
2023/12/12 07:12:39;;;;;;;11.02;7.95;;;16.40;77.70;;;;;;5023221;28;20166;-95
2023/12/12 07:15:05;;;;;;;9.00;8.02;;;16.40;77.60;;;;;;5022175;28;20790;-96
2023/12/12 07:17:30;;;;;;;11.23;7.90;;;16.40;77.60;;;;;;5013785;28;20084;-96
2023/12/12 07:19:56;;;;;;;9.68;7.85;;;16.40;77.50;;;;;;5039248;28;20052;-95
2023/12/12 07:22:22;;;;;;;9.50;7.18;;;16.40;77.30;;;;;;4998640;28;20030;-95
2023/12/12 07:24:47;;;;;;;9.25;7.38;;;16.40;77.30;;;;;;5045467;28;20712;-89
2023/12/12 07:27:13;;;;;;;8.77;7.40;;;16.40;77.20;;;;;;5050070;28;20265;-96
2023/12/12 07:29:39;;;;;;;9.13;7.25;;;16.40;77.10;;;;;;5011483;28;20060;-91
2023/12/12 07:32:05;;;;;;;8.90;6.93;;;16.40;77.00;;;;;;5012960;28;20068;-94
2023/12/12 07:34:30;;;;;;;9.73;7.18;;;16.40;76.90;;;;;;5047303;28;20078;-92
2023/12/12 07:36:56;;;;;;;8.05;6.20;;;16.40;76.90;;;;;;5050289;28;20455;-92
2023/12/12 07:39:21;;;;;;;6.90;6.20;;;16.40;76.90;;;;;;5046381;28;20033;-93
2023/12/12 07:41:48;;;;;;;8.00;6.47;;;16.40;76.90;;;;;;5032503;28;20067;-92
2023/12/12 07:44:14;;;;;;;8.80;6.63;;;16.40;76.80;;;;;;5047602;28;20021;-92
2023/12/12 07:46:39;;;;;;;6.72;5.72;;;16.40;76.70;;;;;;5000362;28;20033;-90
2023/12/12 07:49:06;;;;;;;8.13;6.25;;;16.40;76.70;;;;;;5013555;28;20041;-93
2023/12/12 07:51:32;;;;;;;6.32;5.72;;;16.40;76.50;;;;;;5037018;28;20045;-96
2023/12/12 07:54:01;;;;;;;7.78;5.88;;;16.50;76.90;;;;;;5046725;28;20054;-95
2023/12/12 07:56:27;;;;;;;8.07;5.78;;;16.50;76.60;;;;;;5070580;28;20100;-96
2023/12/12 07:58:52;;;;;;;7.97;5.97;;;16.50;76.70;;;;;;5057122;28;20045;-86
2023/12/12 08:01:18;;;;;;;6.72;5.68;;;16.50;76.80;;;;;;5052080;28;20053;-96
2023/12/12 08:03:44;;;;;;;6.28;5.70;;;16.40;76.90;;;;;;5064111;28;20041;-96
2023/12/12 08:06:10;;;;;;;6.95;6.25;;;16.40;76.90;;;;;;5050467;28;20039;-96
2023/12/12 08:08:38;;;;;;;6.45;5.57;;;16.40;76.90;;;;;;5231564;22;20080;-96
2023/12/12 08:11:04;;;;;;;8.57;5.97;;;16.40;77.00;;;;;;5032622;28;20041;-95
2023/12/12 08:13:33;;;;;;;5.88;5.38;;;16.40;77.10;;;;;;5052906;28;20116;-96
2023/12/12 08:15:59;;;;;;;6.43;5.35;;;16.40;77.10;;;;;;5053054;28;20033;-90
2023/12/12 08:18:25;;;;;;;6.95;5.80;;;16.40;77.10;;;;;;5048660;28;20053;-96
2023/12/12 08:20:51;;;;;;;7.03;5.38;;;16.40;77.10;;;;;;5070403;28;20065;-96
2023/12/12 08:23:17;;;;;;;6.13;5.28;;;16.40;77.10;;;;;;5033723;28;20028;-96
2023/12/12 08:25:42;;;;;;;5.43;4.88;;;16.40;77.10;;;;;;5057717;28;20046;-96
2023/12/12 08:28:08;;;;;;;6.90;5.32;;;16.40;77.20;;;;;;5047850;28;20045;-95
2023/12/12 08:30:35;;;;;;;6.65;5.28;;;16.40;77.20;;;;;;5037702;28;20037;-96
2023/12/12 08:33:01;;;;;;;5.60;4.80;;;16.40;77.20;;;;;;5052771;28;20033;-91
2023/12/12 08:35:27;;;;;;;5.82;5.00;;;16.40;77.10;;;;;;5041995;28;20056;-96
2023/12/12 08:37:53;;;;;;;6.53;4.68;;;16.30;77.10;;;;;;5025174;28;20314;-96
2023/12/12 08:40:22;;;;;;;6.53;5.25;;;16.40;77.00;;;;;;5021120;28;20057;-96
2023/12/12 08:42:48;;;;;;;5.10;4.45;;;16.30;77.10;;;;;;5037799;28;20062;-96
2023/12/12 08:45:14;;;;;;;5.20;4.68;;;16.30;77.10;;;;;;5228619;22;20045;-96
2023/12/12 08:47:39;;;;;;;6.40;5.05;;;16.30;77.10;;;;;;5061361;28;20075;-96
2023/12/12 08:50:06;;;;;;;4.85;4.43;;;16.30;77.10;;;;;;5054317;28;20049;-95
2023/12/12 08:52:32;;;;;;;5.25;4.75;;;16.30;77.10;;;;;;5443694;22;20044;-96
2023/12/12 08:54:57;;;;;;;5.07;4.07;;;16.30;77.20;;;;;;5086916;28;20082;-96
2023/12/12 08:57:24;;;;;;;5.82;4.63;;;16.30;77.10;;;;;;5101024;28;20040;-96
2023/12/12 08:59:49;;;;;;;4.50;4.05;;;16.30;77.20;;;;;;5114564;28;20044;-96
2023/12/12 09:02:17;;;;;;;6.53;4.63;;;16.30;77.10;;;;;;5130928;28;20054;-94
2023/12/12 09:04:42;;;;;;;7.15;4.07;;;16.30;77.10;;;;;;5165345;22;20028;-96
2023/12/12 09:07:08;;;;;;;5.05;3.80;;;16.30;77.10;;;;;;5092246;28;20045;-93
2023/12/12 09:09:34;;;;;;;4.65;4.22;;;16.30;77.20;;;;;;5078384;28;20088;-96
2023/12/12 09:12:03;;;;;;;5.22;4.20;;;16.30;77.10;;;;;;5057004;28;20024;-96
2023/12/12 09:14:29;;;;;;;5.00;4.38;;;16.30;77.20;;;;;;5074199;28;20040;-95
2023/12/12 09:16:55;;;;;;;4.03;3.63;;;16.30;77.10;;;;;;5062587;28;20048;-90
2023/12/12 09:19:21;;;;;;;4.95;4.30;;;16.30;77.20;;;;;;5069790;28;20040;-90
2023/12/12 09:21:48;;;;;;;4.45;3.63;;;16.40;76.90;;;;;;5060186;28;20055;-91
2023/12/12 09:24:14;;;;;;;4.20;3.80;;;16.40;76.90;;;;;;5046688;28;20049;-93
2023/12/12 09:26:40;;;;;;;4.97;4.13;;;16.40;77.30;;;;;;5029462;28;20460;-93
2023/12/12 09:29:06;;;;;;;5.30;4.70;;;16.40;77.10;;;;;;5033202;28;20048;-89
2023/12/12 09:31:32;;;;;;;4.78;4.28;;;16.40;77.10;;;;;;5055444;28;20395;-89
2023/12/12 09:33:58;;;;;;;5.40;3.92;;;16.40;77.00;;;;;;5061391;28;20490;-91
2023/12/12 09:36:23;;;;;;;3.95;3.65;;;16.40;77.00;;;;;;5055218;28;20055;-89
2023/12/12 09:38:49;;;;;;;3.90;3.58;;;16.40;77.00;;;;;;5045151;28;20463;-89
2023/12/12 09:41:21;;;;;;;5.00;3.95;;;16.40;77.10;;;;;;5045257;28;20179;-89
2023/12/12 09:43:48;;;;;;;4.32;3.92;;;16.40;77.10;;;;;;5040327;28;20041;-90
2023/12/12 09:46:13;;;;;;;5.05;3.88;;;16.40;77.00;;;;;;5040149;28;20423;-89
2023/12/12 09:48:39;;;;;;;7.88;3.70;;;16.40;77.10;;;;;;5044023;28;20041;-89
2023/12/12 09:51:06;;;;;;;4.20;3.20;;;16.30;77.10;;;;;;5052738;28;20912;-82
2023/12/12 09:53:35;;;;;;;3.92;3.33;;;16.30;77.10;;;;;;5037359;28;20041;-90
2023/12/12 09:56:04;;;;;;;3.70;3.40;;;16.40;77.10;;;;;;5069395;28;20024;-91
2023/12/12 09:58:29;;;;;;;3.10;2.83;;;16.40;77.00;;;;;;5035199;28;20075;-88
2023/12/12 10:00:55;;;;;;;3.42;3.13;;;16.40;76.80;;;;;;5012457;28;20037;-87
2023/12/12 10:03:21;;;;;;;3.58;3.28;;;16.40;76.80;;;;;;5059246;28;20496;-92
2023/12/12 10:05:52;;;;;;;3.78;3.47;;;16.40;76.80;;;;;;5027655;28;20131;-95
2023/12/12 10:08:18;;;;;;;2.92;2.70;;;16.40;76.90;;;;;;4695742;28;9999842;-90
2023/12/12 10:10:44;;;;;;;3.80;3.30;;;16.40;76.80;;;;;;5060259;28;20145;-92
2023/12/12 10:13:09;;;;;;;3.55;3.25;;;16.50;76.50;;;;;;5059961;28;20041;-89
2023/12/12 10:15:35;;;;;;;4.45;3.33;;;16.40;76.40;;;;;;5048848;28;20091;-88
2023/12/12 10:18:00;;;;;;;3.47;3.15;;;16.40;76.40;;;;;;5082181;28;20041;-92
2023/12/12 10:20:27;;;;;;;3.83;3.30;;;16.40;76.40;;;;;;5054535;28;20048;-89
2023/12/12 10:22:54;;;;;;;3.75;3.45;;;16.40;76.40;;;;;;5062783;28;20560;-92
2023/12/12 10:25:22;;;;;;;4.20;3.80;;;16.40;76.50;;;;;;5049759;28;20048;-92
2023/12/12 10:27:49;;;;;;;3.47;3.13;;;16.40;76.50;;;;;;5075959;28;20056;-88
2023/12/12 10:30:15;;;;;;;3.88;3.40;;;16.40;76.60;;;;;;5058383;28;20076;-89
2023/12/12 10:32:40;;;;;;;3.28;3.00;;;16.50;76.40;;;;;;5037432;28;20069;-90
2023/12/12 10:35:07;;;;;;;3.00;2.78;;;16.50;76.30;;;;;;5069189;28;20135;-93
2023/12/12 10:37:33;;;;;;;4.70;3.25;;;16.50;76.30;;;;;;5067402;28;20106;-93
2023/12/12 10:40:21;;;;;;;3.03;2.72;;;16.50;76.30;;;;;;5067324;28;20040;-88
2023/12/12 10:42:47;;;;;;;2.90;2.70;;;16.50;76.30;;;;;;5059375;28;20514;-89
2023/12/12 10:45:13;;;;;;;3.47;2.92;;;16.50;76.30;;;;;;5048799;28;20041;-87
2023/12/12 10:47:45;;;;;;;2.97;2.78;;;16.40;76.40;;;;;;5051525;28;20048;-88
2023/12/12 10:50:14;;;;;;;2.83;2.63;;;16.40;76.50;;;;;;5056033;28;20903;-90
2023/12/12 10:52:41;;;;;;;3.60;3.00;;;16.40;76.40;;;;;;5068837;28;20106;-93
2023/12/12 10:55:08;;;;;;;3.78;2.85;;;16.50;76.30;;;;;;5065439;28;20063;-96
2023/12/12 10:57:35;;;;;;;3.05;2.67;;;16.50;76.00;;;;;;5036288;28;20037;-88
2023/12/12 11:00:01;;;;;;;2.95;2.70;;;16.60;76.50;;;;;;5031860;28;20040;-89
2023/12/12 11:02:26;;;;;;;2.40;2.30;;;16.60;75.70;;;;;;5039652;28;20049;-88
2023/12/12 11:04:52;;;;;;;7.55;3.28;;;16.70;75.50;;;;;;5045997;28;20055;-90
2023/12/12 11:07:18;;;;;;;5.07;2.88;;;16.70;75.90;;;;;;5011347;28;20130;-95
2023/12/12 11:09:43;;;;;;;6.60;2.67;;;16.70;76.30;;;;;;5016263;28;20483;-88
2023/12/12 11:12:09;;;;;;;6.53;2.67;;;16.80;76.00;;;;;;5043418;28;20522;-84
2023/12/12 11:14:35;;;;;;;5.25;3.42;;;16.80;75.90;;;;;;5030206;28;20048;-85
2023/12/12 11:17:00;;;;;;;4.93;2.80;;;16.80;78.50;;;;;;5044959;28;20060;-86
2023/12/12 11:19:26;;;;;;;3.20;2.83;;;16.70;80.30;;;;;;5077924;28;20033;-85
2023/12/12 11:21:52;;;;;;;3.58;2.10;;;16.70;80.00;;;;;;5033487;28;20043;-85
2023/12/12 11:24:18;;;;;;;2.53;2.10;;;16.70;79.20;;;;;;5026619;28;20037;-85
2023/12/12 11:26:45;;;;;;;2.63;2.35;;;16.80;79.60;;;;;;5057300;28;20506;-85
2023/12/12 11:29:13;;;;;;;3.22;2.40;;;16.70;79.40;;;;;;5062046;28;20099;-87
2023/12/12 11:32:01;;;;;;;3.70;2.10;;;16.70;78.10;;;;;;5020653;28;20049;-90
2023/12/12 11:34:35;;;;;;;2.60;2.22;;;16.70;77.50;;;;;;5045601;28;20036;-91
2023/12/12 11:37:01;;;;;;;2.38;2.17;;;16.70;77.30;;;;;;5047307;28;20037;-90
2023/12/12 11:39:29;;;;;;;2.30;2.10;;;16.70;77.10;;;;;;5045414;28;20041;-91
2023/12/12 11:41:56;;;;;;;2.33;2.03;;;16.70;76.90;;;;;;5048903;28;20044;-92
2023/12/12 11:44:21;;;;;;;2.15;2.00;;;16.70;76.70;;;;;;5062131;28;20406;-91
2023/12/12 11:46:47;;;;;;;2.63;2.20;;;16.70;76.70;;;;;;5048624;28;20037;-90
2023/12/12 11:49:20;;;;;;;2.28;2.08;;;16.70;76.60;;;;;;5028112;28;20056;-89
2023/12/12 11:51:46;;;;;;;2.50;2.28;;;16.70;76.40;;;;;;5007104;28;20048;-88
2023/12/12 11:54:24;;;;;;;3.00;2.17;;;16.70;76.30;;;;;;5050750;28;20044;-87
2023/12/12 11:56:57;;;;;;;2.80;2.55;;;16.70;76.20;;;;;;5043812;28;20041;-90
2023/12/12 11:59:23;;;;;;;2.20;1.70;;;16.70;76.20;;;;;;5046919;28;20461;-90
2023/12/12 12:01:49;;;;;;;2.35;2.15;;;16.70;76.20;;;;;;5055389;28;20053;-90
2023/12/12 12:04:14;;;;;;;2.35;2.13;;;16.70;76.10;;;;;;5038731;28;20506;-90
2023/12/12 12:06:41;;;;;;;3.08;2.22;;;16.70;75.90;;;;;;5065002;28;20080;-88
2023/12/12 12:09:07;;;;;;;2.60;1.90;;;16.80;75.70;;;;;;5055813;28;20048;-89
2023/12/12 12:11:36;;;;;;;2.63;2.15;;;16.80;75.50;;;;;;5047930;28;20068;-92
2023/12/12 12:14:02;;;;;;;2.88;1.70;;;16.80;75.40;;;;;;5034185;28;20033;-91
2023/12/12 12:16:28;;;;;;;2.20;2.00;;;16.80;75.20;;;;;;5047176;28;20678;-91
2023/12/12 12:18:54;;;;;;;2.00;1.80;;;16.90;75.00;;;;;;5027217;28;20116;-90
2023/12/12 12:21:23;;;;;;;5.13;2.10;;;16.90;74.90;;;;;;5055919;28;20086;-88
2023/12/12 12:23:48;;;;;;;2.28;1.98;;;17.00;74.90;;;;;;5030779;28;20567;-90
2023/12/12 12:26:14;;;;;;;1.85;1.75;;;16.90;75.60;;;;;;5034972;28;20041;-91
2023/12/12 12:28:40;;;;;;;1.80;1.42;;;16.90;76.70;;;;;;5034006;28;20066;-91